sensor_id;sensor_type;location;lat;lon;timestamp;P1;durP1;ratioP1;P2;durP2;ratioP2
46363;SDS011;32071;49.036;9.344;2024-01-30T00:00:43;7.37;;;3.90;;
46363;SDS011;32071;49.036;9.344;2024-01-30T00:03:08;10.33;;;3.93;;
46363;SDS011;32071;49.036;9.344;2024-01-30T00:05:34;5.07;;;3.47;;
46363;SDS011;32071;49.036;9.344;2024-01-30T00:07:59;7.40;;;3.43;;
46363;SDS011;32071;49.036;9.344;2024-01-30T00:10:25;6.03;;;3.87;;
46363;SDS011;32071;49.036;9.344;2024-01-30T00:12:50;3.73;;;3.20;;
46363;SDS011;32071;49.036;9.344;2024-01-30T00:15:16;5.70;;;4.60;;
46363;SDS011;32071;49.036;9.344;2024-01-30T00:17:41;4.67;;;3.53;;
46363;SDS011;32071;49.036;9.344;2024-01-30T00:20:07;4.80;;;3.40;;
46363;SDS011;32071;49.036;9.344;2024-01-30T00:22:34;5.67;;;3.67;;
46363;SDS011;32071;49.036;9.344;2024-01-30T00:24:59;6.50;;;3.90;;
46363;SDS011;32071;49.036;9.344;2024-01-30T00:27:25;5.80;;;4.07;;
46363;SDS011;32071;49.036;9.344;2024-01-30T00:29:52;7.77;;;4.40;;
46363;SDS011;32071;49.036;9.344;2024-01-30T00:32:18;4.30;;;3.57;;
46363;SDS011;32071;49.036;9.344;2024-01-30T00:34:44;3.57;;;2.77;;
46363;SDS011;32071;49.036;9.344;2024-01-30T00:37:10;7.60;;;4.00;;
46363;SDS011;32071;49.036;9.344;2024-01-30T00:39:35;4.70;;;3.47;;
46363;SDS011;32071;49.036;9.344;2024-01-30T00:42:01;4.83;;;3.50;;
46363;SDS011;32071;49.036;9.344;2024-01-30T00:44:27;5.07;;;4.20;;
46363;SDS011;32071;49.036;9.344;2024-01-30T00:46:52;4.97;;;3.47;;
46363;SDS011;32071;49.036;9.344;2024-01-30T00:49:18;7.67;;;3.20;;
46363;SDS011;32071;49.036;9.344;2024-01-30T00:51:44;6.10;;;3.33;;
46363;SDS011;32071;49.036;9.344;2024-01-30T00:54:09;6.13;;;3.60;;
46363;SDS011;32071;49.036;9.344;2024-01-30T00:56:35;5.80;;;3.90;;
46363;SDS011;32071;49.036;9.344;2024-01-30T00:59:00;5.40;;;3.90;;
46363;SDS011;32071;49.036;9.344;2024-01-30T01:01:26;7.10;;;4.30;;
46363;SDS011;32071;49.036;9.344;2024-01-30T01:03:51;6.60;;;4.10;;
46363;SDS011;32071;49.036;9.344;2024-01-30T01:06:17;5.93;;;3.53;;
46363;SDS011;32071;49.036;9.344;2024-01-30T01:08:42;6.87;;;3.80;;
46363;SDS011;32071;49.036;9.344;2024-01-30T01:11:08;6.37;;;4.00;;
46363;SDS011;32071;49.036;9.344;2024-01-30T01:13:34;5.37;;;3.67;;
46363;SDS011;32071;49.036;9.344;2024-01-30T01:16:00;5.23;;;3.70;;
46363;SDS011;32071;49.036;9.344;2024-01-30T01:18:25;7.23;;;3.93;;
46363;SDS011;32071;49.036;9.344;2024-01-30T01:20:52;5.80;;;3.53;;
46363;SDS011;32071;49.036;9.344;2024-01-30T01:23:17;6.67;;;3.93;;
46363;SDS011;32071;49.036;9.344;2024-01-30T01:25:43;7.50;;;4.33;;
46363;SDS011;32071;49.036;9.344;2024-01-30T01:28:09;5.57;;;3.97;;
46363;SDS011;32071;49.036;9.344;2024-01-30T01:30:35;5.20;;;4.50;;
46363;SDS011;32071;49.036;9.344;2024-01-30T01:33:00;6.40;;;4.47;;
46363;SDS011;32071;49.036;9.344;2024-01-30T01:35:27;5.10;;;3.70;;
46363;SDS011;32071;49.036;9.344;2024-01-30T01:37:53;5.93;;;3.90;;
46363;SDS011;32071;49.036;9.344;2024-01-30T01:40:24;4.83;;;4.00;;
46363;SDS011;32071;49.036;9.344;2024-01-30T01:42:50;6.80;;;3.90;;
46363;SDS011;32071;49.036;9.344;2024-01-30T01:45:20;7.47;;;4.07;;
46363;SDS011;32071;49.036;9.344;2024-01-30T01:47:55;8.73;;;4.37;;
46363;SDS011;32071;49.036;9.344;2024-01-30T01:50:21;8.93;;;4.57;;
46363;SDS011;32071;49.036;9.344;2024-01-30T01:52:47;5.93;;;4.33;;
46363;SDS011;32071;49.036;9.344;2024-01-30T01:55:13;4.10;;;3.60;;
46363;SDS011;32071;49.036;9.344;2024-01-30T01:57:40;6.43;;;5.07;;
46363;SDS011;32071;49.036;9.344;2024-01-30T02:00:07;6.10;;;4.30;;
46363;SDS011;32071;49.036;9.344;2024-01-30T02:02:35;11.60;;;6.93;;
46363;SDS011;32071;49.036;9.344;2024-01-30T02:05:01;9.93;;;5.47;;
46363;SDS011;32071;49.036;9.344;2024-01-30T02:07:30;7.93;;;5.23;;
46363;SDS011;32071;49.036;9.344;2024-01-30T02:09:55;8.90;;;5.30;;
46363;SDS011;32071;49.036;9.344;2024-01-30T02:12:21;9.00;;;5.67;;
46363;SDS011;32071;49.036;9.344;2024-01-30T02:14:47;10.17;;;5.10;;
46363;SDS011;32071;49.036;9.344;2024-01-30T02:17:14;6.43;;;5.00;;
46363;SDS011;32071;49.036;9.344;2024-01-30T02:19:40;6.63;;;4.77;;
46363;SDS011;32071;49.036;9.344;2024-01-30T02:22:06;8.80;;;4.83;;
46363;SDS011;32071;49.036;9.344;2024-01-30T02:24:32;7.87;;;5.10;;
46363;SDS011;32071;49.036;9.344;2024-01-30T02:26:58;7.50;;;4.70;;
46363;SDS011;32071;49.036;9.344;2024-01-30T02:29:24;8.57;;;5.70;;
46363;SDS011;32071;49.036;9.344;2024-01-30T02:31:49;8.17;;;5.10;;
46363;SDS011;32071;49.036;9.344;2024-01-30T02:34:16;5.93;;;4.20;;
46363;SDS011;32071;49.036;9.344;2024-01-30T02:36:44;9.10;;;5.20;;
46363;SDS011;32071;49.036;9.344;2024-01-30T02:39:10;7.03;;;4.93;;
46363;SDS011;32071;49.036;9.344;2024-01-30T02:41:36;9.60;;;4.87;;
46363;SDS011;32071;49.036;9.344;2024-01-30T02:44:02;9.53;;;6.60;;
46363;SDS011;32071;49.036;9.344;2024-01-30T02:46:28;11.50;;;5.87;;
46363;SDS011;32071;49.036;9.344;2024-01-30T02:48:54;8.57;;;5.10;;
46363;SDS011;32071;49.036;9.344;2024-01-30T02:51:20;7.80;;;5.43;;
46363;SDS011;32071;49.036;9.344;2024-01-30T02:53:45;10.47;;;6.20;;
46363;SDS011;32071;49.036;9.344;2024-01-30T02:56:11;8.53;;;4.70;;
46363;SDS011;32071;49.036;9.344;2024-01-30T02:58:38;12.10;;;6.00;;
46363;SDS011;32071;49.036;9.344;2024-01-30T03:01:05;8.37;;;5.83;;
46363;SDS011;32071;49.036;9.344;2024-01-30T03:03:31;7.33;;;5.20;;
46363;SDS011;32071;49.036;9.344;2024-01-30T03:05:56;8.73;;;5.80;;
46363;SDS011;32071;49.036;9.344;2024-01-30T03:08:22;8.13;;;5.80;;
46363;SDS011;32071;49.036;9.344;2024-01-30T03:10:48;7.03;;;5.47;;
46363;SDS011;32071;49.036;9.344;2024-01-30T03:13:13;8.40;;;4.70;;
46363;SDS011;32071;49.036;9.344;2024-01-30T03:15:39;7.03;;;4.97;;
46363;SDS011;32071;49.036;9.344;2024-01-30T03:18:05;7.10;;;5.27;;
46363;SDS011;32071;49.036;9.344;2024-01-30T03:20:30;8.07;;;4.67;;
46363;SDS011;32071;49.036;9.344;2024-01-30T03:22:56;7.20;;;5.10;;
46363;SDS011;32071;49.036;9.344;2024-01-30T03:25:22;15.13;;;5.40;;
46363;SDS011;32071;49.036;9.344;2024-01-30T03:27:47;6.70;;;5.03;;
46363;SDS011;32071;49.036;9.344;2024-01-30T03:30:13;10.90;;;5.10;;
46363;SDS011;32071;49.036;9.344;2024-01-30T03:32:39;9.50;;;5.57;;
46363;SDS011;32071;49.036;9.344;2024-01-30T03:35:05;11.60;;;5.67;;
46363;SDS011;32071;49.036;9.344;2024-01-30T03:37:31;6.63;;;5.43;;
46363;SDS011;32071;49.036;9.344;2024-01-30T03:39:56;10.37;;;6.30;;
46363;SDS011;32071;49.036;9.344;2024-01-30T03:42:22;8.40;;;5.73;;
46363;SDS011;32071;49.036;9.344;2024-01-30T03:44:48;10.80;;;5.77;;
46363;SDS011;32071;49.036;9.344;2024-01-30T03:47:13;8.50;;;5.80;;
46363;SDS011;32071;49.036;9.344;2024-01-30T03:49:39;8.17;;;4.93;;
46363;SDS011;32071;49.036;9.344;2024-01-30T03:52:05;7.23;;;5.30;;
46363;SDS011;32071;49.036;9.344;2024-01-30T03:54:30;8.20;;;6.33;;
46363;SDS011;32071;49.036;9.344;2024-01-30T03:56:56;9.63;;;5.37;;
46363;SDS011;32071;49.036;9.344;2024-01-30T03:59:21;8.50;;;5.07;;
46363;SDS011;32071;49.036;9.344;2024-01-30T04:01:49;7.90;;;5.13;;
46363;SDS011;32071;49.036;9.344;2024-01-30T04:04:16;7.53;;;5.03;;
46363;SDS011;32071;49.036;9.344;2024-01-30T04:06:45;6.60;;;5.23;;
46363;SDS011;32071;49.036;9.344;2024-01-30T04:09:12;6.97;;;5.20;;
46363;SDS011;32071;49.036;9.344;2024-01-30T04:11:38;4.90;;;4.10;;
46363;SDS011;32071;49.036;9.344;2024-01-30T04:14:04;8.13;;;4.60;;
46363;SDS011;32071;49.036;9.344;2024-01-30T04:16:30;8.30;;;5.07;;
46363;SDS011;32071;49.036;9.344;2024-01-30T04:18:55;7.63;;;4.67;;
46363;SDS011;32071;49.036;9.344;2024-01-30T04:21:21;5.53;;;4.43;;
46363;SDS011;32071;49.036;9.344;2024-01-30T04:23:47;6.40;;;4.90;;
46363;SDS011;32071;49.036;9.344;2024-01-30T04:26:13;5.90;;;4.70;;
46363;SDS011;32071;49.036;9.344;2024-01-30T04:28:41;7.80;;;5.20;;
46363;SDS011;32071;49.036;9.344;2024-01-30T04:31:06;10.83;;;5.57;;
46363;SDS011;32071;49.036;9.344;2024-01-30T04:33:32;5.50;;;4.40;;
46363;SDS011;32071;49.036;9.344;2024-01-30T04:35:58;9.17;;;5.63;;
46363;SDS011;32071;49.036;9.344;2024-01-30T04:38:23;7.67;;;5.60;;
46363;SDS011;32071;49.036;9.344;2024-01-30T04:40:49;7.13;;;4.43;;
46363;SDS011;32071;49.036;9.344;2024-01-30T04:43:14;6.10;;;4.37;;
46363;SDS011;32071;49.036;9.344;2024-01-30T04:45:40;9.50;;;4.97;;
46363;SDS011;32071;49.036;9.344;2024-01-30T04:48:06;9.27;;;5.20;;
46363;SDS011;32071;49.036;9.344;2024-01-30T04:50:32;8.10;;;5.27;;
46363;SDS011;32071;49.036;9.344;2024-01-30T04:52:57;7.73;;;5.20;;
46363;SDS011;32071;49.036;9.344;2024-01-30T04:55:23;8.37;;;5.83;;
46363;SDS011;32071;49.036;9.344;2024-01-30T04:57:49;8.20;;;4.90;;
46363;SDS011;32071;49.036;9.344;2024-01-30T05:00:15;7.40;;;5.30;;
46363;SDS011;32071;49.036;9.344;2024-01-30T05:02:40;9.43;;;4.97;;
46363;SDS011;32071;49.036;9.344;2024-01-30T05:05:06;8.13;;;5.30;;
46363;SDS011;32071;49.036;9.344;2024-01-30T05:07:32;8.43;;;5.27;;
46363;SDS011;32071;49.036;9.344;2024-01-30T05:09:58;5.43;;;4.83;;
46363;SDS011;32071;49.036;9.344;2024-01-30T05:12:24;6.57;;;4.60;;
46363;SDS011;32071;49.036;9.344;2024-01-30T05:14:49;8.20;;;5.20;;
46363;SDS011;32071;49.036;9.344;2024-01-30T05:17:15;7.57;;;5.13;;
46363;SDS011;32071;49.036;9.344;2024-01-30T05:19:40;6.47;;;4.67;;
46363;SDS011;32071;49.036;9.344;2024-01-30T05:22:06;10.03;;;4.83;;
46363;SDS011;32071;49.036;9.344;2024-01-30T05:24:31;6.27;;;4.60;;
46363;SDS011;32071;49.036;9.344;2024-01-30T05:26:57;10.00;;;5.40;;
46363;SDS011;32071;49.036;9.344;2024-01-30T05:29:23;6.30;;;5.00;;
46363;SDS011;32071;49.036;9.344;2024-01-30T05:31:49;8.17;;;5.27;;
46363;SDS011;32071;49.036;9.344;2024-01-30T05:34:15;8.43;;;4.83;;
46363;SDS011;32071;49.036;9.344;2024-01-30T05:36:41;6.63;;;4.37;;
46363;SDS011;32071;49.036;9.344;2024-01-30T05:39:06;7.33;;;5.03;;
46363;SDS011;32071;49.036;9.344;2024-01-30T05:41:32;9.97;;;6.20;;
46363;SDS011;32071;49.036;9.344;2024-01-30T05:43:58;7.70;;;5.80;;
46363;SDS011;32071;49.036;9.344;2024-01-30T05:46:23;9.27;;;6.40;;
46363;SDS011;32071;49.036;9.344;2024-01-30T05:48:49;8.27;;;5.43;;
46363;SDS011;32071;49.036;9.344;2024-01-30T05:51:14;10.47;;;6.07;;
46363;SDS011;32071;49.036;9.344;2024-01-30T05:53:40;8.23;;;5.50;;
46363;SDS011;32071;49.036;9.344;2024-01-30T05:56:06;6.23;;;4.63;;
46363;SDS011;32071;49.036;9.344;2024-01-30T05:58:31;8.03;;;4.67;;
46363;SDS011;32071;49.036;9.344;2024-01-30T06:00:57;10.17;;;6.37;;
46363;SDS011;32071;49.036;9.344;2024-01-30T06:03:23;7.07;;;5.27;;
46363;SDS011;32071;49.036;9.344;2024-01-30T06:05:48;6.73;;;4.90;;
46363;SDS011;32071;49.036;9.344;2024-01-30T06:08:14;10.37;;;5.97;;
46363;SDS011;32071;49.036;9.344;2024-01-30T06:10:39;8.33;;;5.27;;
46363;SDS011;32071;49.036;9.344;2024-01-30T06:13:05;11.50;;;5.47;;
46363;SDS011;32071;49.036;9.344;2024-01-30T06:15:31;6.50;;;5.10;;
46363;SDS011;32071;49.036;9.344;2024-01-30T06:17:57;8.03;;;5.23;;
46363;SDS011;32071;49.036;9.344;2024-01-30T06:20:23;9.43;;;5.37;;
46363;SDS011;32071;49.036;9.344;2024-01-30T06:22:49;8.30;;;5.57;;
46363;SDS011;32071;49.036;9.344;2024-01-30T06:25:14;7.83;;;5.10;;
46363;SDS011;32071;49.036;9.344;2024-01-30T06:27:41;8.33;;;5.10;;
46363;SDS011;32071;49.036;9.344;2024-01-30T06:30:07;9.77;;;5.23;;
46363;SDS011;32071;49.036;9.344;2024-01-30T06:32:33;7.17;;;4.30;;
46363;SDS011;32071;49.036;9.344;2024-01-30T06:35:00;10.70;;;5.30;;
46363;SDS011;32071;49.036;9.344;2024-01-30T06:37:26;10.30;;;4.93;;
46363;SDS011;32071;49.036;9.344;2024-01-30T06:39:52;8.20;;;5.83;;
46363;SDS011;32071;49.036;9.344;2024-01-30T06:42:18;7.90;;;4.83;;
46363;SDS011;32071;49.036;9.344;2024-01-30T06:44:43;6.40;;;5.10;;
46363;SDS011;32071;49.036;9.344;2024-01-30T06:47:09;7.27;;;5.43;;
46363;SDS011;32071;49.036;9.344;2024-01-30T06:49:35;8.03;;;5.53;;
46363;SDS011;32071;49.036;9.344;2024-01-30T06:52:04;7.67;;;5.47;;
46363;SDS011;32071;49.036;9.344;2024-01-30T06:54:30;8.73;;;5.67;;
46363;SDS011;32071;49.036;9.344;2024-01-30T06:56:56;8.17;;;5.13;;
46363;SDS011;32071;49.036;9.344;2024-01-30T06:59:21;8.30;;;5.70;;
46363;SDS011;32071;49.036;9.344;2024-01-30T07:01:47;11.50;;;6.47;;
46363;SDS011;32071;49.036;9.344;2024-01-30T07:04:13;11.23;;;7.20;;
46363;SDS011;32071;49.036;9.344;2024-01-30T07:06:38;9.07;;;6.10;;
46363;SDS011;32071;49.036;9.344;2024-01-30T07:09:04;27.70;;;14.27;;
46363;SDS011;32071;49.036;9.344;2024-01-30T07:11:30;41.87;;;21.07;;
46363;SDS011;32071;49.036;9.344;2024-01-30T07:13:56;45.63;;;22.57;;
46363;SDS011;32071;49.036;9.344;2024-01-30T07:16:21;18.50;;;11.13;;
46363;SDS011;32071;49.036;9.344;2024-01-30T07:18:48;28.50;;;16.20;;
46363;SDS011;32071;49.036;9.344;2024-01-30T07:21:14;28.97;;;17.97;;
46363;SDS011;32071;49.036;9.344;2024-01-30T07:23:40;28.30;;;17.27;;
46363;SDS011;32071;49.036;9.344;2024-01-30T07:26:07;20.17;;;12.20;;
46363;SDS011;32071;49.036;9.344;2024-01-30T07:28:33;13.73;;;8.70;;
46363;SDS011;32071;49.036;9.344;2024-01-30T07:30:59;14.03;;;8.37;;
46363;SDS011;32071;49.036;9.344;2024-01-30T07:33:26;12.70;;;7.60;;
46363;SDS011;32071;49.036;9.344;2024-01-30T07:35:52;11.70;;;5.97;;
46363;SDS011;32071;49.036;9.344;2024-01-30T07:38:18;11.20;;;6.73;;
46363;SDS011;32071;49.036;9.344;2024-01-30T07:40:44;12.67;;;6.30;;
46363;SDS011;32071;49.036;9.344;2024-01-30T07:43:10;13.40;;;6.07;;
46363;SDS011;32071;49.036;9.344;2024-01-30T07:45:35;8.40;;;5.80;;
46363;SDS011;32071;49.036;9.344;2024-01-30T07:48:02;7.60;;;5.43;;
46363;SDS011;32071;49.036;9.344;2024-01-30T07:50:28;8.30;;;5.30;;
46363;SDS011;32071;49.036;9.344;2024-01-30T07:52:55;10.73;;;5.50;;
46363;SDS011;32071;49.036;9.344;2024-01-30T07:55:21;12.97;;;5.70;;
46363;SDS011;32071;49.036;9.344;2024-01-30T07:57:50;9.37;;;5.40;;
46363;SDS011;32071;49.036;9.344;2024-01-30T08:00:19;8.30;;;5.03;;
46363;SDS011;32071;49.036;9.344;2024-01-30T08:02:46;8.63;;;5.80;;
46363;SDS011;32071;49.036;9.344;2024-01-30T08:05:11;9.47;;;5.23;;
46363;SDS011;32071;49.036;9.344;2024-01-30T08:07:39;9.23;;;6.00;;
46363;SDS011;32071;49.036;9.344;2024-01-30T08:10:05;9.90;;;5.90;;
46363;SDS011;32071;49.036;9.344;2024-01-30T08:12:31;10.03;;;6.33;;
46363;SDS011;32071;49.036;9.344;2024-01-30T08:14:56;8.00;;;5.60;;
46363;SDS011;32071;49.036;9.344;2024-01-30T08:17:22;9.00;;;5.57;;
46363;SDS011;32071;49.036;9.344;2024-01-30T08:19:47;9.53;;;6.60;;
46363;SDS011;32071;49.036;9.344;2024-01-30T08:22:13;17.43;;;12.60;;
46363;SDS011;32071;49.036;9.344;2024-01-30T08:24:39;15.90;;;10.50;;
46363;SDS011;32071;49.036;9.344;2024-01-30T08:27:06;18.10;;;12.83;;
46363;SDS011;32071;49.036;9.344;2024-01-30T08:29:34;22.80;;;15.07;;
46363;SDS011;32071;49.036;9.344;2024-01-30T08:32:00;30.87;;;19.27;;
46363;SDS011;32071;49.036;9.344;2024-01-30T08:34:26;34.90;;;19.27;;
46363;SDS011;32071;49.036;9.344;2024-01-30T08:36:52;26.47;;;16.53;;
46363;SDS011;32071;49.036;9.344;2024-01-30T08:39:17;25.10;;;17.00;;
46363;SDS011;32071;49.036;9.344;2024-01-30T08:41:43;30.73;;;19.63;;
46363;SDS011;32071;49.036;9.344;2024-01-30T08:44:08;33.47;;;20.63;;
46363;SDS011;32071;49.036;9.344;2024-01-30T08:46:36;29.23;;;18.73;;
46363;SDS011;32071;49.036;9.344;2024-01-30T08:49:01;30.10;;;18.77;;
46363;SDS011;32071;49.036;9.344;2024-01-30T08:51:29;31.00;;;17.53;;
46363;SDS011;32071;49.036;9.344;2024-01-30T08:53:54;23.40;;;15.53;;
46363;SDS011;32071;49.036;9.344;2024-01-30T08:56:20;21.57;;;15.87;;
46363;SDS011;32071;49.036;9.344;2024-01-30T08:58:45;24.07;;;14.50;;
46363;SDS011;32071;49.036;9.344;2024-01-30T09:01:11;21.10;;;14.57;;
46363;SDS011;32071;49.036;9.344;2024-01-30T09:03:37;22.10;;;15.27;;
46363;SDS011;32071;49.036;9.344;2024-01-30T09:06:07;28.50;;;18.57;;
46363;SDS011;32071;49.036;9.344;2024-01-30T09:08:36;30.27;;;19.80;;
46363;SDS011;32071;49.036;9.344;2024-01-30T09:11:12;31.53;;;19.77;;
46363;SDS011;32071;49.036;9.344;2024-01-30T09:13:38;27.30;;;18.40;;
46363;SDS011;32071;49.036;9.344;2024-01-30T09:16:04;24.50;;;17.03;;
46363;SDS011;32071;49.036;9.344;2024-01-30T09:18:30;24.63;;;16.30;;
46363;SDS011;32071;49.036;9.344;2024-01-30T09:20:55;21.80;;;15.60;;
46363;SDS011;32071;49.036;9.344;2024-01-30T09:23:21;20.83;;;14.13;;
46363;SDS011;32071;49.036;9.344;2024-01-30T09:25:47;22.60;;;15.73;;
46363;SDS011;32071;49.036;9.344;2024-01-30T09:28:12;17.73;;;13.40;;
46363;SDS011;32071;49.036;9.344;2024-01-30T09:30:38;20.73;;;14.27;;
46363;SDS011;32071;49.036;9.344;2024-01-30T09:33:04;18.67;;;13.60;;
46363;SDS011;32071;49.036;9.344;2024-01-30T09:35:30;19.30;;;13.53;;
46363;SDS011;32071;49.036;9.344;2024-01-30T09:37:55;22.03;;;16.67;;
46363;SDS011;32071;49.036;9.344;2024-01-30T09:40:22;24.40;;;16.50;;
46363;SDS011;32071;49.036;9.344;2024-01-30T09:42:48;20.40;;;14.30;;
46363;SDS011;32071;49.036;9.344;2024-01-30T09:45:15;22.17;;;14.67;;
46363;SDS011;32071;49.036;9.344;2024-01-30T09:47:44;16.90;;;12.47;;
46363;SDS011;32071;49.036;9.344;2024-01-30T09:50:11;15.23;;;11.23;;
46363;SDS011;32071;49.036;9.344;2024-01-30T09:52:38;16.00;;;10.57;;
46363;SDS011;32071;49.036;9.344;2024-01-30T09:55:04;15.10;;;11.53;;
46363;SDS011;32071;49.036;9.344;2024-01-30T09:57:31;16.00;;;13.20;;
46363;SDS011;32071;49.036;9.344;2024-01-30T09:59:56;26.63;;;18.67;;
46363;SDS011;32071;49.036;9.344;2024-01-30T10:02:22;32.10;;;22.80;;
46363;SDS011;32071;49.036;9.344;2024-01-30T10:04:49;25.83;;;17.70;;
46363;SDS011;32071;49.036;9.344;2024-01-30T10:07:15;24.30;;;16.57;;
46363;SDS011;32071;49.036;9.344;2024-01-30T10:09:42;21.97;;;16.23;;
46363;SDS011;32071;49.036;9.344;2024-01-30T10:12:08;25.60;;;17.13;;
46363;SDS011;32071;49.036;9.344;2024-01-30T10:14:38;19.77;;;15.90;;
46363;SDS011;32071;49.036;9.344;2024-01-30T10:17:04;19.10;;;15.00;;
46363;SDS011;32071;49.036;9.344;2024-01-30T10:19:30;20.80;;;15.40;;
46363;SDS011;32071;49.036;9.344;2024-01-30T10:21:56;19.23;;;14.93;;
46363;SDS011;32071;49.036;9.344;2024-01-30T10:24:25;24.00;;;17.53;;
46363;SDS011;32071;49.036;9.344;2024-01-30T10:26:52;21.43;;;16.30;;
46363;SDS011;32071;49.036;9.344;2024-01-30T10:29:18;20.03;;;15.17;;
46363;SDS011;32071;49.036;9.344;2024-01-30T10:31:44;24.80;;;16.20;;
46363;SDS011;32071;49.036;9.344;2024-01-30T10:34:09;23.13;;;16.80;;
46363;SDS011;32071;49.036;9.344;2024-01-30T10:36:39;24.20;;;16.00;;
46363;SDS011;32071;49.036;9.344;2024-01-30T10:39:08;22.03;;;16.13;;
46363;SDS011;32071;49.036;9.344;2024-01-30T10:41:37;19.00;;;14.73;;
46363;SDS011;32071;49.036;9.344;2024-01-30T10:44:08;18.77;;;13.53;;
46363;SDS011;32071;49.036;9.344;2024-01-30T10:46:35;19.83;;;14.20;;
46363;SDS011;32071;49.036;9.344;2024-01-30T10:49:02;20.87;;;14.03;;
46363;SDS011;32071;49.036;9.344;2024-01-30T10:51:29;20.73;;;14.70;;
46363;SDS011;32071;49.036;9.344;2024-01-30T10:53:56;18.70;;;14.53;;
46363;SDS011;32071;49.036;9.344;2024-01-30T10:56:23;23.20;;;15.27;;
46363;SDS011;32071;49.036;9.344;2024-01-30T10:58:52;20.93;;;15.27;;
46363;SDS011;32071;49.036;9.344;2024-01-30T11:01:19;23.07;;;16.33;;
46363;SDS011;32071;49.036;9.344;2024-01-30T11:03:48;24.30;;;16.00;;
46363;SDS011;32071;49.036;9.344;2024-01-30T11:06:15;19.10;;;15.33;;
46363;SDS011;32071;49.036;9.344;2024-01-30T11:08:43;19.40;;;14.23;;
46363;SDS011;32071;49.036;9.344;2024-01-30T11:11:10;19.47;;;14.77;;
46363;SDS011;32071;49.036;9.344;2024-01-30T11:13:35;21.80;;;16.57;;
46363;SDS011;32071;49.036;9.344;2024-01-30T11:16:02;29.63;;;19.53;;
46363;SDS011;32071;49.036;9.344;2024-01-30T11:18:31;27.47;;;19.10;;
46363;SDS011;32071;49.036;9.344;2024-01-30T11:20:58;26.97;;;19.13;;
46363;SDS011;32071;49.036;9.344;2024-01-30T11:23:26;22.93;;;17.33;;
46363;SDS011;32071;49.036;9.344;2024-01-30T11:25:53;26.13;;;17.50;;
46363;SDS011;32071;49.036;9.344;2024-01-30T11:28:20;24.27;;;18.53;;
46363;SDS011;32071;49.036;9.344;2024-01-30T11:30:46;23.80;;;17.47;;
46363;SDS011;32071;49.036;9.344;2024-01-30T11:33:15;31.10;;;18.87;;
46363;SDS011;32071;49.036;9.344;2024-01-30T11:35:53;24.60;;;18.00;;
46363;SDS011;32071;49.036;9.344;2024-01-30T11:38:19;26.23;;;19.60;;
46363;SDS011;32071;49.036;9.344;2024-01-30T11:40:45;31.77;;;19.40;;
46363;SDS011;32071;49.036;9.344;2024-01-30T11:43:12;26.10;;;18.70;;
46363;SDS011;32071;49.036;9.344;2024-01-30T11:45:38;26.90;;;19.40;;
46363;SDS011;32071;49.036;9.344;2024-01-30T11:48:04;33.83;;;21.77;;
46363;SDS011;32071;49.036;9.344;2024-01-30T11:50:30;42.20;;;26.63;;
46363;SDS011;32071;49.036;9.344;2024-01-30T11:52:58;43.50;;;26.83;;
46363;SDS011;32071;49.036;9.344;2024-01-30T11:55:24;29.67;;;20.07;;
46363;SDS011;32071;49.036;9.344;2024-01-30T11:57:50;33.93;;;22.10;;
46363;SDS011;32071;49.036;9.344;2024-01-30T12:00:17;29.60;;;20.53;;
46363;SDS011;32071;49.036;9.344;2024-01-30T12:02:43;30.07;;;19.43;;
46363;SDS011;32071;49.036;9.344;2024-01-30T12:05:14;28.00;;;19.47;;
46363;SDS011;32071;49.036;9.344;2024-01-30T12:07:39;26.50;;;18.57;;
46363;SDS011;32071;49.036;9.344;2024-01-30T12:10:05;24.60;;;18.73;;
46363;SDS011;32071;49.036;9.344;2024-01-30T12:12:34;25.70;;;18.70;;
46363;SDS011;32071;49.036;9.344;2024-01-30T12:15:00;22.00;;;16.97;;
46363;SDS011;32071;49.036;9.344;2024-01-30T12:17:27;24.43;;;18.00;;
46363;SDS011;32071;49.036;9.344;2024-01-30T12:20:04;26.80;;;18.60;;
46363;SDS011;32071;49.036;9.344;2024-01-30T12:22:31;24.07;;;17.20;;
46363;SDS011;32071;49.036;9.344;2024-01-30T12:25:05;23.03;;;17.50;;
46363;SDS011;32071;49.036;9.344;2024-01-30T12:27:33;34.33;;;23.33;;
46363;SDS011;32071;49.036;9.344;2024-01-30T12:29:59;47.07;;;28.90;;
46363;SDS011;32071;49.036;9.344;2024-01-30T12:32:25;40.47;;;25.70;;
46363;SDS011;32071;49.036;9.344;2024-01-30T12:34:54;41.53;;;24.23;;
46363;SDS011;32071;49.036;9.344;2024-01-30T12:37:20;30.43;;;20.63;;
46363;SDS011;32071;49.036;9.344;2024-01-30T12:39:47;26.77;;;17.47;;
46363;SDS011;32071;49.036;9.344;2024-01-30T12:42:14;21.13;;;16.40;;
46363;SDS011;32071;49.036;9.344;2024-01-30T12:44:39;23.20;;;16.77;;
46363;SDS011;32071;49.036;9.344;2024-01-30T12:47:08;18.13;;;15.03;;
46363;SDS011;32071;49.036;9.344;2024-01-30T12:49:34;22.77;;;16.70;;
46363;SDS011;32071;49.036;9.344;2024-01-30T12:51:59;20.63;;;15.73;;
46363;SDS011;32071;49.036;9.344;2024-01-30T12:54:25;20.33;;;16.73;;
46363;SDS011;32071;49.036;9.344;2024-01-30T12:56:50;23.63;;;17.13;;
46363;SDS011;32071;49.036;9.344;2024-01-30T12:59:16;27.43;;;17.90;;
46363;SDS011;32071;49.036;9.344;2024-01-30T13:01:42;24.63;;;18.83;;
46363;SDS011;32071;49.036;9.344;2024-01-30T13:04:08;24.97;;;17.70;;
46363;SDS011;32071;49.036;9.344;2024-01-30T13:06:33;22.13;;;16.93;;
46363;SDS011;32071;49.036;9.344;2024-01-30T13:08:59;26.60;;;17.07;;
46363;SDS011;32071;49.036;9.344;2024-01-30T13:11:24;25.47;;;16.77;;
46363;SDS011;32071;49.036;9.344;2024-01-30T13:13:50;22.80;;;16.40;;
46363;SDS011;32071;49.036;9.344;2024-01-30T13:16:16;20.20;;;15.23;;
46363;SDS011;32071;49.036;9.344;2024-01-30T13:18:42;20.40;;;16.33;;
46363;SDS011;32071;49.036;9.344;2024-01-30T13:21:09;22.07;;;16.37;;
46363;SDS011;32071;49.036;9.344;2024-01-30T13:23:34;22.70;;;15.90;;
46363;SDS011;32071;49.036;9.344;2024-01-30T13:26:00;17.70;;;14.67;;
46363;SDS011;32071;49.036;9.344;2024-01-30T13:28:25;19.73;;;15.13;;
46363;SDS011;32071;49.036;9.344;2024-01-30T13:30:51;23.03;;;14.20;;
46363;SDS011;32071;49.036;9.344;2024-01-30T13:33:17;17.33;;;13.50;;
46363;SDS011;32071;49.036;9.344;2024-01-30T13:35:42;14.87;;;12.57;;
46363;SDS011;32071;49.036;9.344;2024-01-30T13:38:08;20.70;;;12.77;;
46363;SDS011;32071;49.036;9.344;2024-01-30T13:40:34;16.93;;;12.73;;
46363;SDS011;32071;49.036;9.344;2024-01-30T13:42:59;12.27;;;8.97;;
46363;SDS011;32071;49.036;9.344;2024-01-30T13:45:25;9.50;;;8.07;;
46363;SDS011;32071;49.036;9.344;2024-01-30T13:47:50;8.07;;;7.17;;
46363;SDS011;32071;49.036;9.344;2024-01-30T13:50:16;10.80;;;7.80;;
46363;SDS011;32071;49.036;9.344;2024-01-30T13:52:42;7.63;;;6.33;;
46363;SDS011;32071;49.036;9.344;2024-01-30T13:55:08;10.23;;;7.80;;
46363;SDS011;32071;49.036;9.344;2024-01-30T13:57:35;8.50;;;7.37;;
46363;SDS011;32071;49.036;9.344;2024-01-30T14:00:02;9.40;;;7.80;;
46363;SDS011;32071;49.036;9.344;2024-01-30T14:02:30;10.90;;;9.07;;
46363;SDS011;32071;49.036;9.344;2024-01-30T14:04:56;13.93;;;8.87;;
46363;SDS011;32071;49.036;9.344;2024-01-30T14:07:21;18.93;;;10.40;;
46363;SDS011;32071;49.036;9.344;2024-01-30T14:09:47;12.00;;;10.10;;
46363;SDS011;32071;49.036;9.344;2024-01-30T14:12:14;12.43;;;9.43;;
46363;SDS011;32071;49.036;9.344;2024-01-30T14:14:39;13.97;;;9.50;;
46363;SDS011;32071;49.036;9.344;2024-01-30T14:17:05;17.23;;;10.10;;
46363;SDS011;32071;49.036;9.344;2024-01-30T14:19:32;12.00;;;9.73;;
46363;SDS011;32071;49.036;9.344;2024-01-30T14:22:01;14.10;;;10.60;;
46363;SDS011;32071;49.036;9.344;2024-01-30T14:24:27;12.70;;;10.67;;
46363;SDS011;32071;49.036;9.344;2024-01-30T14:26:52;15.87;;;11.77;;
46363;SDS011;32071;49.036;9.344;2024-01-30T14:29:18;16.80;;;11.37;;